ローマ・レオナルド・ダ・ビンチ国際空港の過去48時間の天気

ローマ・レオナルド・ダ・ビンチ国際空港 (Roma Fiumicino)

現在時刻: 2/21 03:32 CET (2/21 02:32 UTC) 以下の時間は現地時間です。

過去48時間のMETAR気象情報
時間 風向 風速(m/s) 視程 気温(℃) 湿度(%) 気圧(hPa) 天気現象
21 02:50 2 10km以上 2 75 1024
21 02:20 2 10km以上 2 75 1024
21 01:50 北北西 2 10km以上 1 80 1024
21 01:20 不定 1 10km以上 4 70 1024
21 00:50 2 10km以上 4 70 1024
21 00:20 北東 2 10km以上 5 61 1024
20 23:50 3 10km以上 5 65 1024
20 23:20 不定 1 10km以上 4 70 1024
20 22:50 1 10km以上 4 75 1024
20 22:20 北北西 2 10km以上 5 75 1024
20 21:50 2 10km以上 6 70 1024
20 21:20 不定 1 10km以上 6 70 1024
20 20:50 2 10km以上 6 70 1024
20 18:50 3 10km以上 10 62 1023
20 18:20 北西 4 10km以上 12 58 1023
20 17:50 北西 5 10km以上 13 58 1022
20 17:20 西北西 6 10km以上 14 55 1022
20 16:50 西北西 7 10km以上 14 59 1022
20 16:20 西北西 7 10km以上 15 51 1022
20 15:50 西 6 10km以上 15 45 1022
20 15:20 西北西 6 10km以上 15 41 1022
20 14:20 西北西 7 10km以上 15 45 1022
20 13:50 西北西 6 10km以上 15 45 1022
20 13:20 北北西 3 10km以上 16 34 1022
20 12:50 北北西 3 10km以上 15 36 1022
20 12:20 北東 3 10km以上 15 39 1023
20 11:50 北東 4 10km以上 14 41 1023
20 11:20 北北東 7 10km以上 14 41 1023
20 10:50 北北東 6 10km以上 13 47 1023
20 10:20 北北東 6 10km以上 12 50 1023
20 09:50 北北東 4 10km以上 11 58 1023
20 09:20 北北東 5 10km以上 10 62 1023
20 08:50 4 10km以上 9 71 1023
20 08:20 4 10km以上 8 76 1022
20 07:50 北北東 3 10km以上 7 81 1022
20 07:20 北北東 3 10km以上 7 81 1022
20 06:50 2 10km以上 7 81 1021
20 06:20 北北東 2 10km以上 5 100 1021
20 05:50 北北東 2 10km以上 3 100 1021
20 05:20 2 10km以上 4 100 1021
20 04:50 南南西 2 10km以上 5 93 1021
20 04:20 不定 1 10km以上 5 93 1021
20 03:50 北北東 2 10km以上 4 100 1020
20 03:20 北東 3 10km以上 3 100 1020
20 02:50 不定 1 10km以上 4 100 1020
20 02:20 北東 2 10km以上 5 93 1021
20 01:50 不定 1 10km以上 4 100 1021
20 01:20 北北西 2 10km以上 4 100 1021
20 00:50 不定 1 10km以上 4 100 1020
20 00:20 不定 1 10km以上 7 93 1020
19 23:50 東南東 2 10km以上 7 93 1020
19 23:20 不定 1 10km以上 6 93 1020
19 22:50 北西 2 10km以上 5 100 1020
19 22:20 不定 1 10km以上 6 100 1020
19 21:50 東北東 2 10km以上 8 93 1020
19 21:20 北西 1 10km以上 7 100 1020
19 20:50 不定 1 10km以上 8 93 1020
19 20:20 西北西 2 10km以上 8 93 1019
19 19:50 北西 1 10km以上 8 93 1019
19 19:20 不定 1 10km以上 9 87 1019
19 18:50 北東 2 10km以上 10 87 1019
19 18:20 北東 3 10km以上 10 87 1018
19 17:50 北北西 3 10km以上 13 72 1018
19 17:20 5 10km以上 14 63 1018
19 16:50 北西 5 10km以上 14 72 1017
19 16:20 西北西 5 10km以上 14 67 1018
19 15:50 西 4 10km以上 14 67 1018
19 15:20 西 4 10km以上 14 63 1018
19 14:50 西 5 10km以上 14 67 1018
19 14:20 西 5 10km以上 15 63 1019
19 13:50 西 6 10km以上 15 63 1019
19 13:20 西南西 7 10km以上 15 63 1019
19 12:50 西南西 4 10km以上 13 82 1020
19 12:20 西南西 3 8000m 13 88 1021
19 11:50 不定 1 6000m 12 94 1022
19 11:20 南東 2 6000m 12 94 1022
19 10:50 3 5000m 12 94 1021 もや
19 10:20 北東 3 5000m 12 94 1022 もや
19 09:50 東北東 3 3000m 11 100 1022 もや
19 09:20 東北東 3 3000m 11 100 1022 散在した霧 もや
19 08:50 2 1500m 10 100 1021 散在した霧
19 08:20 東北東 2 200m 10 100 1022
19 07:50 2 100m 9 100 1022
19 07:20 2 50m 8 100 1021
19 06:50 不定 1 50m 8 100 1021
19 06:20 2 50m 8 100 1021
19 05:50 1 50m 8 100 1021
19 05:20 北北東 1 50m 7 100 1021
19 04:50 不定 1 200m 7 100 1022
19 04:20 東南東 2 200m 7 100 1022
19 03:50 不定 1 200m 6 100 1022 散在した霧
LIRF 210150Z 08003KT CAVOK 02/M02 Q1024 NOSIG
LIRF 210120Z 01003KT CAVOK 02/M02 Q1024 NOSIG
LIRF 210050Z 34004KT CAVOK 01/M02 Q1024 NOSIG
LIRF 210020Z VRB02KT CAVOK 04/M01 Q1024 NOSIG
LIRF 202350Z 09003KT CAVOK 04/M01 Q1024 NOSIG
LIRF 202320Z 05003KT CAVOK 05/M02 Q1024 NOSIG
LIRF 202250Z 08006KT CAVOK 05/M01 Q1024 NOSIG
LIRF 202220Z VRB02KT CAVOK 04/M01 Q1024 NOSIG
LIRF 202150Z 36002KT CAVOK 04/M00 Q1024 NOSIG
LIRF 202120Z 34004KT CAVOK 05/01 Q1024 NOSIG
LIRF 202050Z 35003KT CAVOK 06/01 Q1024 NOSIG
LIRF 202020Z VRB01KT CAVOK 06/01 Q1024 NOSIG
LIRF 201950Z 35004KT CAVOK 06/01 Q1024 NOSIG
LIRF 201750Z 35006KT CAVOK 10/03 Q1023 NOSIG
LIRF 201720Z 32007KT CAVOK 12/04 Q1023 NOSIG
LIRF 201650Z 31009KT CAVOK 13/05 Q1022 NOSIG
LIRF 201620Z 30012KT CAVOK 14/05 Q1022 NOSIG
LIRF 201550Z 30013KT CAVOK 14/06 Q1022 NOSIG
LIRF 201520Z 30013KT CAVOK 15/05 Q1022 NOSIG
LIRF 201450Z 28012KT CAVOK 15/03 Q1022 NOSIG
LIRF 201420Z 29012KT CAVOK 15/02 Q1022 NOSIG
LIRF 201320Z 30014KT CAVOK 15/03 Q1022 NOSIG
LIRF 201250Z 29011KT CAVOK 15/03 Q1022 NOSIG
LIRF 201220Z 34006KT 290V020 CAVOK 16/M00 Q1022 NOSIG
LIRF 201150Z 33005KT 270V040 CAVOK 15/00 Q1022 NOSIG
LIRF 201120Z 05006KT 010V100 CAVOK 15/01 Q1023 NOSIG
LIRF 201050Z 04007KT 360V070 CAVOK 14/01 Q1023 NOSIG
LIRF 201020Z 03013KT CAVOK 14/01 Q1023 NOSIG
LIRF 200950Z 02012KT CAVOK 13/02 Q1023 NOSIG
LIRF 200920Z 03011KT 360V060 CAVOK 12/02 Q1023 NOSIG
LIRF 200850Z 03008KT CAVOK 11/03 Q1023 NOSIG
LIRF 200820Z 02010KT CAVOK 10/03 Q1023 NOSIG
LIRF 200750Z 01007KT CAVOK 09/04 Q1023 NOSIG
LIRF 200720Z 01007KT 340V040 CAVOK 08/04 Q1022 NOSIG
LIRF 200650Z 02006KT CAVOK 07/04 Q1022 NOSIG
LIRF 200620Z 02006KT CAVOK 07/04 Q1022 NOSIG
LIRF 200550Z 36003KT 300V060 CAVOK 07/04 Q1021 NOSIG
LIRF 200520Z 02004KT 350V110 CAVOK 05/05 Q1021 NOSIG
LIRF 200450Z 03003KT 330V070 CAVOK 03/03 Q1021 NOSIG
LIRF 200420Z 08003KT CAVOK 04/04 Q1021 NOSIG
LIRF 200350Z 21003KT CAVOK 05/04 Q1021 NOSIG
LIRF 200320Z VRB02KT CAVOK 05/04 Q1021 NOSIG
LIRF 200250Z 02003KT 340V050 CAVOK 04/04 Q1020 NOSIG
LIRF 200220Z 04005KT CAVOK 03/03 Q1020 NOSIG
LIRF 200150Z VRB02KT CAVOK 04/04 Q1020 NOSIG
LIRF 200120Z 05003KT 340V090 CAVOK 05/04 Q1021 NOSIG
LIRF 200050Z VRB02KT CAVOK 04/04 Q1021 NOSIG
LIRF 200020Z 34003KT CAVOK 04/04 Q1021 NOSIG
LIRF 192350Z VRB01KT CAVOK 04/04 Q1020 NOSIG
LIRF 192320Z VRB01KT CAVOK 07/06 Q1020 NOSIG
LIRF 192250Z 11003KT CAVOK 07/06 Q1020 NOSIG
LIRF 192220Z VRB02KT CAVOK 06/05 Q1020 NOSIG
LIRF 192150Z 32003KT CAVOK 05/05 Q1020 NOSIG
LIRF 192120Z VRB02KT CAVOK 06/06 Q1020 NOSIG
LIRF 192050Z 07003KT CAVOK 08/07 Q1020 NOSIG
LIRF 192020Z 31002KT CAVOK 07/07 Q1020 NOSIG
LIRF 191950Z VRB02KT CAVOK 08/07 Q1020 NOSIG
LIRF 191920Z 30003KT CAVOK 08/07 Q1019 NOSIG
LIRF 191850Z 32002KT CAVOK 08/07 Q1019 NOSIG
LIRF 191820Z VRB02KT CAVOK 09/07 Q1019 NOSIG
LIRF 191750Z 04004KT 9999 FEW030 10/08 Q1019 NOSIG
LIRF 191720Z 05005KT CAVOK 10/08 Q1018 NOSIG
LIRF 191650Z 34006KT CAVOK 13/08 Q1018 NOSIG
LIRF 191620Z 35009KT 9999 FEW025 SCT050 14/07 Q1018 NOSIG
LIRF 191550Z 31010KT 280V340 9999 FEW020 SCT050 14/09 Q1017 NOSIG
LIRF 191520Z 30010KT 9999 BKN050 14/08 Q1018
LIRF 191450Z 28008KT 250V310 9999 FEW028 SCT045 14/08 Q1018 TEMPO SHRA
LIRF 191420Z 26007KT 9999 FEW028 14/07 Q1018 NOSIG
LIRF 191350Z 26009KT 230V300 9999 FEW030 14/08 Q1018 NOSIG
LIRF 191320Z 26010KT 9999 SCT030 15/08 Q1019 NOSIG
LIRF 191250Z 26011KT 9999 SCT030 15/08 Q1019 NOSIG
LIRF 191220Z 25013KT 9999 SCT025 15/08 Q1019 NOSIG
LIRF 191150Z 25007KT 9999 FEW010 BKN025 13/10 Q1020 NOSIG
LIRF 191120Z 24005KT 220V280 8000 FEW010 BKN025 13/11 Q1021 NOSIG
LIRF 191050Z VRB01KT 6000 SCT005 BKN010 12/11 Q1022 NOSIG
LIRF 191020Z 14003KT 050V210 6000 R16L/1400N R16R/P1500N R25/P1500N R34R/1300N FEW005 BKN009 12/11 Q1022 NOSIG
LIRF 190950Z 08005KT 5000 R16L/1300U R16R/P1500N R25/P1500N R34R/1100U BR BKN007 12/11 Q1021 NOSIG
LIRF 190920Z 05005KT 5000 R16L/1300D R16R/P1500N R25/1100U R34R/1200D BR BKN005 12/11 Q1022 NOSIG
LIRF 190850Z 07005KT 3000 R16L/1100U R16R/P1500N R25/1100U R34R/1000N BR BKN002 11/11 Q1022 BECMG 4000 BR
LIRF 190820Z 06006KT 3000 1000E R16L/1000N R16R/P1500N R25/1000N R34R/0900N BR BCFG BKN002 11/11 Q1022 BECMG 4000 BR
LIRF 190750Z 08003KT 1500 1000SE R16L/1000N R16R/0600V1100U R25/0800V1000U R34R/0900N BCFG BKN002 10/10 Q1021 BECMG 4000 BR
LIRF 190720Z 07004KT 0200 R16L/1200N R16R/0300N R25/0250N R34R/0350N FG VV/// 10/10 Q1022 BECMG 0600 FG
LIRF 190650Z 09004KT 0100 R16L/0550D R16R/0300N R25/0200N R34R/0275N FG VV/// 09/09 Q1022 NOSIG
LIRF 190620Z 10004KT 0050 R16L/0450D R16R/0400D R25/0225N R34R/0300N FG VV/// 08/08 Q1021 NOSIG
LIRF 190550Z VRB02KT 0050 R16L/0800VP1500D R16R/0350V0550N R25/0175N R34R/0325N FG NSC 08/08 Q1021 NOSIG
LIRF 190520Z 10003KT 0050 R16L/P1500N R16R/0450D R25/0250N R34R/0450N FG NSC 08/08 Q1021 NOSIG
LIRF 190450Z 09002KT 0050 R16L/P1500N R16R/0650N R25/0300N R34R/0750D FG NSC 08/08 Q1021 NOSIG
LIRF 190420Z 03002KT 0050 R16L/0700U R16R/0650N R25/0250N R34R/0600N FG NSC 07/07 Q1021 NOSIG
LIRF 190350Z VRB02KT 0200 R16L/0550N R16R/1000D R25/0275D R34R/0550N FG NSC 07/07 Q1022 NOSIG
LIRF 190320Z 11003KT 0200 R16L/0650U R16R/0750N R25/0550N R34R/0900N FG NSC 07/07 Q1022 NOSIG
LIRF 190250Z VRB02KT 0200 R16L/0600N R16R/0600N R25/0400N R34R/0650D BCFG NSC 06/06 Q1022 NOSIG